Aérodrome :
LOGIN :

S'inscrire | Disclaimer

   EN    FR    IT 

 










Légende :    VFR   VFR Marginal   IFR   IFR Intensif   IFR Très Intensif
Visi : 
Plafond : 
>= 8 km
>= 3000ft
5 à 8 km
1000 à 3000 ft
1500m à 5 km
500 à 1000 ft
800 à 1500m
200 à 500 ft
< 800m
< 200 ft
Symboles :   Orages  Brouillard  Fortes neiges  Fortes précipitations  Vent > 20 kt
SIGMETs :   Divers  Orages  Givrage  Turbulence  Onde Orograph.  Cendres Volcan.






- Altitude de l'aérodrome : 80 ft
- Code IATA : LPL


EGGP - Liverpool John Lennon

DERNIER METAR :
  • 251250Z AUTO 28017KT 9999 BKN019/// 07/03 Q1010

METARs EXPIRÉS :
  • 251220Z AUTO 29012KT 9999 SCT021/// BKN026/// BKN033/// 06/03 Q1009
  • 251150Z AUTO 28011KT 9999 FEW015/// SCT020/// BKN028/// 06/04 Q1009 RERA
  • 251120Z AUTO 27013KT 9999 BKN025/// BKN030/// 05/03 Q1009
  • 251050Z 27011KT 9999 SCT021 05/03 Q1009
  • 251020Z 27009KT 9999 SCT021 04/02 Q1008

TAF TAF EGGP
Valide du 25 à 12h jusqu'au 26 à 12h UTC


251101Z 2512/2612 28010KT 9999 SCT020
BECMG 2521/2524 22004KT
TEMPO 2608/2612 7000 -RADZ BKN012
PROB30
TEMPO 2610/2612 3000 RA RADZ BKN006
ATIS : +44 151 907 2000 (option 5 or ext 5150)
Météo : +44 871 750 5150



MET'MAP, la Météo Aéronautique d'un coup d'oeil ! - Copyright ORBIFLY Décembre 2007 - Disclaimer

ORBIFLY MET'MAP TEAM :

Programmation & Développement : Alexandra Zaïnal
Sur une idée originale de : Baudouin d'Aumeries
Assistance à la programmation : Marc-Olivier Méhu
Soutien technique & logistique : Manuel Goepfert

Contact : metmap@orbifly.com




SOURCES & CREDITS :

   NOAA